Altha, Florida
Current Conditions -  °F | °C
As of 2:53 PM on Tuesday 25 Nov 2014 (Local Time) from KMAI Reporting Station
Light Rain Light Rain  
Wind Chill: 10°   Ceiling: 7000
Heat Index: 10°   Visibility: 8mi
Dew Point:   Wind: 7mph
Humidity: 96%   Direction: 330°NNW
Pressure: 30.04"   Gusts: NA
Location:  30.57°N, 85.13°W
Report Text: KMAI 252053Z AUTO 33006KT 8SM -RA OVC070 10/09 A3004 RMK AO2 SLP171 P0001 60008 T01000094 55009
Loading
Personal Weather Stations






























Interactive Weather Map New forecast layout! Learn more

10-Day Weather Forecast

Advertisements
Track Severe Weather on mobile